Airfield :
LOGIN :

Register | Disclaimer

   EN    FR    IT 

 










Legend :    VFR   Marginal VFR   IFR   Intensive IFR   Very Intensive IFR
Visi :
Ceiling :
>= 8 km
>= 3000ft
5 to 8 km
1000 to 3000 ft
1500m to 5 km
500 to 1000 ft
800 to 1500m
200 to 500 ft
< 800m
< 200 ft
Symbols :   Thunderstorms  Fog  Heavy snow  Heavy precipitations  Wind > 20 kt
SIGMETs :     Misc.  Thunderstorms  Icing  Turbulence  Mountain Waves  Volcanic Ashes






- Airport Elevation : 235 ft
- IATA code : BZG


EPBY - Bydgoszcz

CURRENT METAR :
  • 210200Z 16002KT 2900 BR NSC 07/07 Q1015

EXPIRED METARs :
  • 210130Z VRB02KT 0900 R26/1300U FG NSC 08/08 Q1015
  • 210100Z 09004KT 0900 R26/1100U FG NSC 08/08 Q1014
  • 210030Z 09004KT 0800 R26/1300U FG NSC 08/08 Q1014
  • 210000Z 10002KT 0150 R26/1200U FG NSC 08/08 Q1015
  • 202330Z VRB01KT 0150 R26/1100D FG NSC 08/08 Q1014

TAF TAF EPBY
Valid from the 21 at 00:00 until the 22 at 00:00 UTC


202330Z 2100/2124 VRB02KT 1500 BR NSC
TEMPO 2100/2108 0500 FG
PROB40 2100/2108 0100 FG OVC001
BECMG 2108/2111 CAVOK
BECMG 2117/2119 2000 BR
TEMPO 2120/2124 0600 FG



MET'MAP, your aeronautical weather chart ! - Copyright ORBIFLY December 2007 - Disclaimer

ORBIFLY MET'MAP TEAM :

Programming & Development : Alexandra Zaïnal
Concept & Development : Baudouin d'Aumeries
Co-Development & Prog : Marc-Olivier Méhu
Technical & hardware support : Manuel Goepfert

Contact : metmap@orbifly.com




SOURCES & CREDITS :

   NOAA